sensor_id;sensor_type;location;lat;lon;timestamp;P1;durP1;ratioP1;P2;durP2;ratioP2
52494;SDS011;38405;53.212;5.660;2023-03-14T00:01:14;15.80;;;3.53;;
52494;SDS011;38405;53.212;5.660;2023-03-14T00:03:42;18.80;;;4.18;;
52494;SDS011;38405;53.212;5.660;2023-03-14T00:06:09;24.48;;;4.18;;
52494;SDS011;38405;53.212;5.660;2023-03-14T00:08:35;21.58;;;3.95;;
52494;SDS011;38405;53.212;5.660;2023-03-14T00:11:09;25.88;;;3.80;;
52494;SDS011;38405;53.212;5.660;2023-03-14T00:13:41;19.95;;;4.22;;
52494;SDS011;38405;53.212;5.660;2023-03-14T00:16:08;19.35;;;4.20;;
52494;SDS011;38405;53.212;5.660;2023-03-14T00:18:37;16.02;;;2.95;;
52494;SDS011;38405;53.212;5.660;2023-03-14T00:21:03;21.85;;;3.65;;
52494;SDS011;38405;53.212;5.660;2023-03-14T00:23:31;17.13;;;3.42;;
52494;SDS011;38405;53.212;5.660;2023-03-14T00:25:59;20.67;;;3.50;;
52494;SDS011;38405;53.212;5.660;2023-03-14T00:28:25;22.20;;;4.07;;
52494;SDS011;38405;53.212;5.660;2023-03-14T00:30:52;23.50;;;4.22;;
52494;SDS011;38405;53.212;5.660;2023-03-14T00:33:17;17.10;;;3.70;;
52494;SDS011;38405;53.212;5.660;2023-03-14T00:35:43;18.45;;;3.53;;
52494;SDS011;38405;53.212;5.660;2023-03-14T00:38:08;18.60;;;3.88;;
52494;SDS011;38405;53.212;5.660;2023-03-14T00:40:34;17.08;;;3.78;;
52494;SDS011;38405;53.212;5.660;2023-03-14T00:43:04;15.57;;;2.92;;
52494;SDS011;38405;53.212;5.660;2023-03-14T00:45:29;20.40;;;4.32;;
52494;SDS011;38405;53.212;5.660;2023-03-14T00:47:55;20.27;;;3.80;;
52494;SDS011;38405;53.212;5.660;2023-03-14T00:50:20;17.73;;;3.72;;
52494;SDS011;38405;53.212;5.660;2023-03-14T00:52:46;25.38;;;3.92;;
52494;SDS011;38405;53.212;5.660;2023-03-14T00:55:13;22.33;;;4.45;;
52494;SDS011;38405;53.212;5.660;2023-03-14T00:57:39;21.75;;;4.28;;
52494;SDS011;38405;53.212;5.660;2023-03-14T01:00:05;21.42;;;4.40;;
52494;SDS011;38405;53.212;5.660;2023-03-14T01:02:33;24.75;;;3.50;;
52494;SDS011;38405;53.212;5.660;2023-03-14T01:04:58;21.33;;;4.05;;
52494;SDS011;38405;53.212;5.660;2023-03-14T01:07:24;27.73;;;4.22;;
52494;SDS011;38405;53.212;5.660;2023-03-14T01:09:51;15.60;;;3.30;;
52494;SDS011;38405;53.212;5.660;2023-03-14T01:12:17;29.50;;;4.55;;
52494;SDS011;38405;53.212;5.660;2023-03-14T01:14:43;25.67;;;4.70;;
52494;SDS011;38405;53.212;5.660;2023-03-14T01:17:09;22.80;;;3.47;;
52494;SDS011;38405;53.212;5.660;2023-03-14T01:19:34;21.65;;;4.38;;
52494;SDS011;38405;53.212;5.660;2023-03-14T01:22:00;20.77;;;4.28;;
52494;SDS011;38405;53.212;5.660;2023-03-14T01:24:25;22.55;;;3.65;;
52494;SDS011;38405;53.212;5.660;2023-03-14T01:26:53;23.15;;;3.42;;
52494;SDS011;38405;53.212;5.660;2023-03-14T01:29:18;25.13;;;4.18;;
52494;SDS011;38405;53.212;5.660;2023-03-14T01:31:44;19.50;;;3.80;;
52494;SDS011;38405;53.212;5.660;2023-03-14T01:34:09;21.85;;;4.43;;
52494;SDS011;38405;53.212;5.660;2023-03-14T01:36:35;25.20;;;3.65;;
52494;SDS011;38405;53.212;5.660;2023-03-14T01:39:01;23.65;;;4.40;;
52494;SDS011;38405;53.212;5.660;2023-03-14T01:41:27;24.70;;;3.78;;
52494;SDS011;38405;53.212;5.660;2023-03-14T01:43:53;27.45;;;4.47;;
52494;SDS011;38405;53.212;5.660;2023-03-14T01:46:28;32.72;;;4.38;;
52494;SDS011;38405;53.212;5.660;2023-03-14T01:52:01;27.73;;;4.85;;
52494;SDS011;38405;53.212;5.660;2023-03-14T01:54:37;29.95;;;4.28;;
52494;SDS011;38405;53.212;5.660;2023-03-14T01:57:16;28.35;;;4.28;;
52494;SDS011;38405;53.212;5.660;2023-03-14T01:59:50;24.08;;;4.47;;
52494;SDS011;38405;53.212;5.660;2023-03-14T02:02:23;21.85;;;3.80;;
52494;SDS011;38405;53.212;5.660;2023-03-14T02:04:51;25.55;;;4.18;;
52494;SDS011;38405;53.212;5.660;2023-03-14T02:07:26;31.80;;;4.32;;
52494;SDS011;38405;53.212;5.660;2023-03-14T02:10:00;26.10;;;4.25;;
52494;SDS011;38405;53.212;5.660;2023-03-14T02:12:28;22.35;;;3.75;;
52494;SDS011;38405;53.212;5.660;2023-03-14T02:14:54;24.60;;;3.83;;
52494;SDS011;38405;53.212;5.660;2023-03-14T02:17:20;22.65;;;4.13;;
52494;SDS011;38405;53.212;5.660;2023-03-14T02:19:54;20.48;;;3.58;;
52494;SDS011;38405;53.212;5.660;2023-03-14T02:22:30;30.58;;;4.63;;
52494;SDS011;38405;53.212;5.660;2023-03-14T02:25:03;23.70;;;3.10;;
52494;SDS011;38405;53.212;5.660;2023-03-14T02:27:29;25.38;;;3.95;;
52494;SDS011;38405;53.212;5.660;2023-03-14T02:29:57;26.90;;;4.13;;
52494;SDS011;38405;53.212;5.660;2023-03-14T02:32:26;32.03;;;4.57;;
52494;SDS011;38405;53.212;5.660;2023-03-14T02:34:55;20.13;;;3.25;;
52494;SDS011;38405;53.212;5.660;2023-03-14T02:37:23;20.55;;;3.58;;
52494;SDS011;38405;53.212;5.660;2023-03-14T02:39:55;28.77;;;4.53;;
52494;SDS011;38405;53.212;5.660;2023-03-14T02:42:21;24.75;;;3.65;;
52494;SDS011;38405;53.212;5.660;2023-03-14T02:47:27;24.27;;;4.30;;
52494;SDS011;38405;53.212;5.660;2023-03-14T02:49:58;24.35;;;3.90;;
52494;SDS011;38405;53.212;5.660;2023-03-14T02:52:31;33.38;;;4.22;;
52494;SDS011;38405;53.212;5.660;2023-03-14T02:54:57;23.77;;;3.58;;
52494;SDS011;38405;53.212;5.660;2023-03-14T02:57:22;25.63;;;5.05;;
52494;SDS011;38405;53.212;5.660;2023-03-14T02:59:48;33.15;;;4.05;;
52494;SDS011;38405;53.212;5.660;2023-03-14T03:02:14;30.48;;;4.22;;
52494;SDS011;38405;53.212;5.660;2023-03-14T03:04:39;28.90;;;4.15;;
52494;SDS011;38405;53.212;5.660;2023-03-14T03:07:05;34.20;;;4.85;;
52494;SDS011;38405;53.212;5.660;2023-03-14T03:09:31;28.85;;;4.60;;
52494;SDS011;38405;53.212;5.660;2023-03-14T03:11:56;31.45;;;4.63;;
52494;SDS011;38405;53.212;5.660;2023-03-14T03:14:22;21.17;;;3.83;;
52494;SDS011;38405;53.212;5.660;2023-03-14T03:16:48;30.85;;;5.03;;
52494;SDS011;38405;53.212;5.660;2023-03-14T03:19:13;33.05;;;4.50;;
52494;SDS011;38405;53.212;5.660;2023-03-14T03:21:39;31.27;;;4.40;;
52494;SDS011;38405;53.212;5.660;2023-03-14T03:24:08;29.75;;;4.47;;
52494;SDS011;38405;53.212;5.660;2023-03-14T03:26:34;39.80;;;5.85;;
52494;SDS011;38405;53.212;5.660;2023-03-14T03:29:00;39.95;;;6.50;;
52494;SDS011;38405;53.212;5.660;2023-03-14T03:31:26;34.50;;;4.70;;
52494;SDS011;38405;53.212;5.660;2023-03-14T03:33:52;30.27;;;5.75;;
52494;SDS011;38405;53.212;5.660;2023-03-14T03:36:21;30.92;;;4.28;;
52494;SDS011;38405;53.212;5.660;2023-03-14T03:38:48;29.52;;;4.85;;
52494;SDS011;38405;53.212;5.660;2023-03-14T03:41:14;31.20;;;5.00;;
52494;SDS011;38405;53.212;5.660;2023-03-14T03:43:39;27.73;;;5.30;;
52494;SDS011;38405;53.212;5.660;2023-03-14T03:46:06;24.33;;;4.43;;
52494;SDS011;38405;53.212;5.660;2023-03-14T03:48:32;33.38;;;4.97;;
52494;SDS011;38405;53.212;5.660;2023-03-14T03:50:58;36.88;;;5.15;;
52494;SDS011;38405;53.212;5.660;2023-03-14T03:53:25;24.90;;;4.57;;
52494;SDS011;38405;53.212;5.660;2023-03-14T03:55:50;31.23;;;5.55;;
52494;SDS011;38405;53.212;5.660;2023-03-14T03:58:16;38.60;;;5.22;;
52494;SDS011;38405;53.212;5.660;2023-03-14T04:00:42;29.83;;;4.80;;
52494;SDS011;38405;53.212;5.660;2023-03-14T04:03:07;30.65;;;5.00;;
52494;SDS011;38405;53.212;5.660;2023-03-14T04:05:33;30.40;;;4.88;;
52494;SDS011;38405;53.212;5.660;2023-03-14T04:07:59;38.83;;;6.25;;
52494;SDS011;38405;53.212;5.660;2023-03-14T04:10:26;40.85;;;4.93;;
52494;SDS011;38405;53.212;5.660;2023-03-14T04:12:51;37.70;;;6.50;;
52494;SDS011;38405;53.212;5.660;2023-03-14T04:15:17;31.48;;;4.78;;
52494;SDS011;38405;53.212;5.660;2023-03-14T04:17:43;40.20;;;5.95;;
52494;SDS011;38405;53.212;5.660;2023-03-14T04:20:09;32.22;;;4.93;;
52494;SDS011;38405;53.212;5.660;2023-03-14T04:22:38;31.30;;;4.78;;
52494;SDS011;38405;53.212;5.660;2023-03-14T04:25:05;35.78;;;5.07;;
52494;SDS011;38405;53.212;5.660;2023-03-14T04:27:31;29.42;;;4.57;;
52494;SDS011;38405;53.212;5.660;2023-03-14T04:29:57;26.25;;;4.15;;
52494;SDS011;38405;53.212;5.660;2023-03-14T04:32:23;23.10;;;4.15;;
52494;SDS011;38405;53.212;5.660;2023-03-14T04:34:48;20.58;;;3.97;;
52494;SDS011;38405;53.212;5.660;2023-03-14T04:37:14;21.95;;;3.70;;
52494;SDS011;38405;53.212;5.660;2023-03-14T04:39:40;25.15;;;4.13;;
52494;SDS011;38405;53.212;5.660;2023-03-14T04:42:06;19.33;;;3.47;;
52494;SDS011;38405;53.212;5.660;2023-03-14T04:44:32;23.55;;;4.03;;
52494;SDS011;38405;53.212;5.660;2023-03-14T04:46:57;13.98;;;2.90;;
52494;SDS011;38405;53.212;5.660;2023-03-14T04:49:23;21.35;;;3.50;;
52494;SDS011;38405;53.212;5.660;2023-03-14T04:51:49;10.23;;;2.58;;
52494;SDS011;38405;53.212;5.660;2023-03-14T04:54:17;14.60;;;3.63;;
52494;SDS011;38405;53.212;5.660;2023-03-14T04:56:43;16.67;;;3.00;;
52494;SDS011;38405;53.212;5.660;2023-03-14T04:59:08;19.35;;;3.10;;
52494;SDS011;38405;53.212;5.660;2023-03-14T05:01:34;11.30;;;2.58;;
52494;SDS011;38405;53.212;5.660;2023-03-14T05:04:00;13.13;;;2.85;;
52494;SDS011;38405;53.212;5.660;2023-03-14T05:06:26;16.15;;;2.88;;
52494;SDS011;38405;53.212;5.660;2023-03-14T05:08:52;12.20;;;2.30;;
52494;SDS011;38405;53.212;5.660;2023-03-14T05:11:17;10.77;;;2.55;;
52494;SDS011;38405;53.212;5.660;2023-03-14T05:13:43;10.63;;;2.38;;
52494;SDS011;38405;53.212;5.660;2023-03-14T05:16:09;6.50;;;2.70;;
52494;SDS011;38405;53.212;5.660;2023-03-14T05:18:36;15.25;;;2.55;;
52494;SDS011;38405;53.212;5.660;2023-03-14T05:21:02;19.35;;;3.13;;
52494;SDS011;38405;53.212;5.660;2023-03-14T05:23:29;12.88;;;2.97;;
52494;SDS011;38405;53.212;5.660;2023-03-14T05:25:55;11.82;;;2.63;;
52494;SDS011;38405;53.212;5.660;2023-03-14T05:28:21;13.48;;;3.08;;
52494;SDS011;38405;53.212;5.660;2023-03-14T05:30:46;14.05;;;2.55;;
52494;SDS011;38405;53.212;5.660;2023-03-14T05:33:12;24.98;;;2.50;;
52494;SDS011;38405;53.212;5.660;2023-03-14T05:35:38;13.40;;;2.35;;
52494;SDS011;38405;53.212;5.660;2023-03-14T05:38:03;8.75;;;1.75;;
52494;SDS011;38405;53.212;5.660;2023-03-14T05:40:29;13.68;;;2.00;;
52494;SDS011;38405;53.212;5.660;2023-03-14T05:42:55;9.15;;;1.38;;
52494;SDS011;38405;53.212;5.660;2023-03-14T05:45:20;5.80;;;0.90;;
52494;SDS011;38405;53.212;5.660;2023-03-14T05:47:46;7.63;;;1.38;;
52494;SDS011;38405;53.212;5.660;2023-03-14T05:50:12;7.40;;;1.30;;
52494;SDS011;38405;53.212;5.660;2023-03-14T05:52:37;17.38;;;2.38;;
52494;SDS011;38405;53.212;5.660;2023-03-14T05:55:03;18.52;;;2.30;;
52494;SDS011;38405;53.212;5.660;2023-03-14T05:57:29;16.65;;;2.55;;
52494;SDS011;38405;53.212;5.660;2023-03-14T05:59:55;12.65;;;2.13;;
52494;SDS011;38405;53.212;5.660;2023-03-14T06:02:21;16.15;;;2.22;;
52494;SDS011;38405;53.212;5.660;2023-03-14T06:04:46;15.40;;;2.38;;
52494;SDS011;38405;53.212;5.660;2023-03-14T06:07:12;6.07;;;1.63;;
52494;SDS011;38405;53.212;5.660;2023-03-14T06:09:38;10.52;;;1.63;;
52494;SDS011;38405;53.212;5.660;2023-03-14T06:12:04;8.00;;;1.52;;
52494;SDS011;38405;53.212;5.660;2023-03-14T06:14:30;13.20;;;1.63;;
52494;SDS011;38405;53.212;5.660;2023-03-14T06:16:56;13.60;;;1.50;;
52494;SDS011;38405;53.212;5.660;2023-03-14T06:19:24;9.27;;;1.60;;
52494;SDS011;38405;53.212;5.660;2023-03-14T06:21:50;10.30;;;1.38;;
52494;SDS011;38405;53.212;5.660;2023-03-14T06:24:16;4.88;;;0.80;;
52494;SDS011;38405;53.212;5.660;2023-03-14T06:26:42;8.57;;;1.73;;
52494;SDS011;38405;53.212;5.660;2023-03-14T06:29:08;6.65;;;1.17;;
52494;SDS011;38405;53.212;5.660;2023-03-14T06:31:34;5.97;;;1.00;;
52494;SDS011;38405;53.212;5.660;2023-03-14T06:34:00;9.18;;;1.00;;
52494;SDS011;38405;53.212;5.660;2023-03-14T06:36:25;5.35;;;1.17;;
52494;SDS011;38405;53.212;5.660;2023-03-14T06:38:51;4.97;;;0.95;;
52494;SDS011;38405;53.212;5.660;2023-03-14T06:41:17;3.17;;;0.90;;
52494;SDS011;38405;53.212;5.660;2023-03-14T06:43:42;10.57;;;1.35;;
52494;SDS011;38405;53.212;5.660;2023-03-14T06:46:08;10.73;;;0.88;;
52494;SDS011;38405;53.212;5.660;2023-03-14T06:48:34;4.90;;;0.80;;
52494;SDS011;38405;53.212;5.660;2023-03-14T06:50:59;7.95;;;0.95;;
52494;SDS011;38405;53.212;5.660;2023-03-14T06:53:25;3.88;;;1.13;;
52494;SDS011;38405;53.212;5.660;2023-03-14T06:55:51;6.15;;;1.10;;
52494;SDS011;38405;53.212;5.660;2023-03-14T06:58:16;11.07;;;1.17;;
52494;SDS011;38405;53.212;5.660;2023-03-14T07:00:42;9.88;;;1.45;;
52494;SDS011;38405;53.212;5.660;2023-03-14T07:03:08;10.60;;;1.65;;
52494;SDS011;38405;53.212;5.660;2023-03-14T07:05:35;10.70;;;1.38;;
52494;SDS011;38405;53.212;5.660;2023-03-14T07:08:01;17.65;;;1.65;;
52494;SDS011;38405;53.212;5.660;2023-03-14T07:10:26;16.88;;;2.30;;
52494;SDS011;38405;53.212;5.660;2023-03-14T07:12:52;8.80;;;1.42;;
52494;SDS011;38405;53.212;5.660;2023-03-14T07:15:18;6.72;;;1.50;;
52494;SDS011;38405;53.212;5.660;2023-03-14T07:17:45;9.98;;;1.67;;
52494;SDS011;38405;53.212;5.660;2023-03-14T07:20:13;10.80;;;2.13;;
52494;SDS011;38405;53.212;5.660;2023-03-14T07:22:38;9.48;;;1.58;;
52494;SDS011;38405;53.212;5.660;2023-03-14T07:25:04;17.50;;;2.03;;
52494;SDS011;38405;53.212;5.660;2023-03-14T07:27:30;7.05;;;1.30;;
52494;SDS011;38405;53.212;5.660;2023-03-14T07:29:56;9.65;;;2.20;;
52494;SDS011;38405;53.212;5.660;2023-03-14T07:32:22;11.57;;;1.70;;
52494;SDS011;38405;53.212;5.660;2023-03-14T07:34:47;8.30;;;1.65;;
52494;SDS011;38405;53.212;5.660;2023-03-14T07:37:13;5.97;;;1.65;;
52494;SDS011;38405;53.212;5.660;2023-03-14T07:39:39;12.57;;;2.22;;
52494;SDS011;38405;53.212;5.660;2023-03-14T07:42:04;17.10;;;2.50;;
52494;SDS011;38405;53.212;5.660;2023-03-14T07:44:30;12.85;;;2.22;;
52494;SDS011;38405;53.212;5.660;2023-03-14T07:46:56;15.90;;;2.20;;
52494;SDS011;38405;53.212;5.660;2023-03-14T07:49:22;13.07;;;2.10;;
52494;SDS011;38405;53.212;5.660;2023-03-14T07:51:48;20.83;;;2.83;;
52494;SDS011;38405;53.212;5.660;2023-03-14T07:54:14;14.73;;;2.60;;
52494;SDS011;38405;53.212;5.660;2023-03-14T07:56:39;16.50;;;2.78;;
52494;SDS011;38405;53.212;5.660;2023-03-14T07:59:05;21.60;;;2.58;;
52494;SDS011;38405;53.212;5.660;2023-03-14T08:01:31;19.52;;;2.90;;
52494;SDS011;38405;53.212;5.660;2023-03-14T08:03:56;13.13;;;2.63;;
52494;SDS011;38405;53.212;5.660;2023-03-14T08:06:22;27.67;;;3.38;;
52494;SDS011;38405;53.212;5.660;2023-03-14T08:08:48;17.73;;;2.60;;
52494;SDS011;38405;53.212;5.660;2023-03-14T08:11:13;22.75;;;3.15;;
52494;SDS011;38405;53.212;5.660;2023-03-14T08:13:39;17.85;;;3.33;;
52494;SDS011;38405;53.212;5.660;2023-03-14T08:16:05;25.50;;;3.38;;
52494;SDS011;38405;53.212;5.660;2023-03-14T08:18:31;14.43;;;3.05;;
52494;SDS011;38405;53.212;5.660;2023-03-14T08:20:56;18.63;;;3.22;;
52494;SDS011;38405;53.212;5.660;2023-03-14T08:23:23;14.02;;;2.83;;
52494;SDS011;38405;53.212;5.660;2023-03-14T08:25:49;18.63;;;2.97;;
52494;SDS011;38405;53.212;5.660;2023-03-14T08:28:16;25.25;;;3.08;;
52494;SDS011;38405;53.212;5.660;2023-03-14T08:30:42;23.38;;;3.53;;
52494;SDS011;38405;53.212;5.660;2023-03-14T08:33:07;22.80;;;2.95;;
52494;SDS011;38405;53.212;5.660;2023-03-14T08:35:33;18.20;;;2.53;;
52494;SDS011;38405;53.212;5.660;2023-03-14T08:37:59;14.05;;;2.88;;
52494;SDS011;38405;53.212;5.660;2023-03-14T08:40:24;14.55;;;2.40;;
52494;SDS011;38405;53.212;5.660;2023-03-14T08:42:50;20.63;;;3.65;;
52494;SDS011;38405;53.212;5.660;2023-03-14T08:45:16;19.00;;;2.90;;
52494;SDS011;38405;53.212;5.660;2023-03-14T08:47:43;13.20;;;2.72;;
52494;SDS011;38405;53.212;5.660;2023-03-14T08:50:09;18.17;;;3.03;;
52494;SDS011;38405;53.212;5.660;2023-03-14T08:52:36;23.70;;;3.88;;
52494;SDS011;38405;53.212;5.660;2023-03-14T08:55:11;26.40;;;3.45;;
52494;SDS011;38405;53.212;5.660;2023-03-14T08:57:36;19.13;;;3.25;;
52494;SDS011;38405;53.212;5.660;2023-03-14T09:00:03;30.92;;;3.25;;
52494;SDS011;38405;53.212;5.660;2023-03-14T09:02:39;26.38;;;3.53;;
52494;SDS011;38405;53.212;5.660;2023-03-14T09:05:05;20.50;;;3.10;;
52494;SDS011;38405;53.212;5.660;2023-03-14T09:07:32;24.77;;;3.45;;
52494;SDS011;38405;53.212;5.660;2023-03-14T09:09:57;23.33;;;4.07;;
52494;SDS011;38405;53.212;5.660;2023-03-14T09:12:23;21.27;;;3.33;;
52494;SDS011;38405;53.212;5.660;2023-03-14T09:14:49;17.42;;;3.00;;
52494;SDS011;38405;53.212;5.660;2023-03-14T09:17:14;19.13;;;2.80;;
52494;SDS011;38405;53.212;5.660;2023-03-14T09:19:40;18.02;;;2.90;;
52494;SDS011;38405;53.212;5.660;2023-03-14T09:22:06;18.52;;;2.78;;
52494;SDS011;38405;53.212;5.660;2023-03-14T09:24:31;19.95;;;2.92;;
52494;SDS011;38405;53.212;5.660;2023-03-14T09:26:57;16.83;;;2.70;;
52494;SDS011;38405;53.212;5.660;2023-03-14T09:29:23;16.33;;;3.35;;
52494;SDS011;38405;53.212;5.660;2023-03-14T09:31:49;10.75;;;2.10;;
52494;SDS011;38405;53.212;5.660;2023-03-14T09:34:15;20.40;;;3.25;;
52494;SDS011;38405;53.212;5.660;2023-03-14T09:36:41;13.88;;;2.13;;
52494;SDS011;38405;53.212;5.660;2023-03-14T09:39:09;12.80;;;3.30;;
52494;SDS011;38405;53.212;5.660;2023-03-14T09:41:39;19.42;;;3.05;;
52494;SDS011;38405;53.212;5.660;2023-03-14T09:47:06;18.40;;;3.53;;
52494;SDS011;38405;53.212;5.660;2023-03-14T09:49:37;23.05;;;2.92;;
52494;SDS011;38405;53.212;5.660;2023-03-14T09:52:07;21.10;;;2.65;;
52494;SDS011;38405;53.212;5.660;2023-03-14T09:54:42;19.92;;;3.10;;
52494;SDS011;38405;53.212;5.660;2023-03-14T09:57:14;12.63;;;2.53;;
52494;SDS011;38405;53.212;5.660;2023-03-14T09:59:45;17.17;;;2.95;;
52494;SDS011;38405;53.212;5.660;2023-03-14T10:02:23;16.27;;;2.47;;
52494;SDS011;38405;53.212;5.660;2023-03-14T10:04:51;11.05;;;2.63;;
52494;SDS011;38405;53.212;5.660;2023-03-14T10:07:19;12.68;;;1.77;;
52494;SDS011;38405;53.212;5.660;2023-03-14T10:09:51;13.18;;;2.03;;
52494;SDS011;38405;53.212;5.660;2023-03-14T10:12:18;12.48;;;2.53;;
52494;SDS011;38405;53.212;5.660;2023-03-14T10:14:46;6.97;;;1.75;;
52494;SDS011;38405;53.212;5.660;2023-03-14T10:17:15;5.55;;;1.98;;
52494;SDS011;38405;53.212;5.660;2023-03-14T10:19:55;10.65;;;1.90;;
52494;SDS011;38405;53.212;5.660;2023-03-14T10:22:26;14.38;;;2.13;;
52494;SDS011;38405;53.212;5.660;2023-03-14T10:24:56;8.33;;;2.00;;
52494;SDS011;38405;53.212;5.660;2023-03-14T10:27:32;10.40;;;1.77;;
52494;SDS011;38405;53.212;5.660;2023-03-14T10:30:00;11.15;;;2.13;;
52494;SDS011;38405;53.212;5.660;2023-03-14T10:32:32;12.52;;;2.10;;
52494;SDS011;38405;53.212;5.660;2023-03-14T10:38:00;10.63;;;2.00;;
52494;SDS011;38405;53.212;5.660;2023-03-14T10:40:30;8.23;;;1.80;;
52494;SDS011;38405;53.212;5.660;2023-03-14T10:42:58;6.15;;;1.48;;
52494;SDS011;38405;53.212;5.660;2023-03-14T10:47:58;8.07;;;1.33;;
52494;SDS011;38405;53.212;5.660;2023-03-14T10:50:31;4.55;;;1.30;;
52494;SDS011;38405;53.212;5.660;2023-03-14T10:53:00;7.05;;;1.60;;
52494;SDS011;38405;53.212;5.660;2023-03-14T10:55:39;6.53;;;1.40;;
52494;SDS011;38405;53.212;5.660;2023-03-14T10:58:17;4.68;;;1.23;;
52494;SDS011;38405;53.212;5.660;2023-03-14T11:00:43;7.85;;;1.50;;
52494;SDS011;38405;53.212;5.660;2023-03-14T11:03:12;8.80;;;1.42;;
52494;SDS011;38405;53.212;5.660;2023-03-14T11:11:07;4.90;;;1.42;;
52494;SDS011;38405;53.212;5.660;2023-03-14T11:13:45;6.50;;;1.55;;
52494;SDS011;38405;53.212;5.660;2023-03-14T11:16:34;6.85;;;1.38;;
52494;SDS011;38405;53.212;5.660;2023-03-14T11:19:21;4.80;;;1.38;;
52494;SDS011;38405;53.212;5.660;2023-03-14T11:21:59;12.00;;;1.73;;
52494;SDS011;38405;53.212;5.660;2023-03-14T11:24:49;8.57;;;1.92;;
52494;SDS011;38405;53.212;5.660;2023-03-14T11:32:41;5.90;;;1.63;;
52494;SDS011;38405;53.212;5.660;2023-03-14T11:35:26;10.23;;;2.05;;
52494;SDS011;38405;53.212;5.660;2023-03-14T11:38:00;9.48;;;1.80;;
52494;SDS011;38405;53.212;5.660;2023-03-14T11:40:33;9.60;;;2.00;;
52494;SDS011;38405;53.212;5.660;2023-03-14T11:43:00;7.45;;;1.60;;
52494;SDS011;38405;53.212;5.660;2023-03-14T11:45:39;6.65;;;1.50;;
52494;SDS011;38405;53.212;5.660;2023-03-14T11:48:13;10.05;;;1.98;;
52494;SDS011;38405;53.212;5.660;2023-03-14T11:51:21;11.13;;;1.48;;
52494;SDS011;38405;53.212;5.660;2023-03-14T11:53:53;7.57;;;1.60;;
52494;SDS011;38405;53.212;5.660;2023-03-14T11:56:42;8.50;;;1.88;;
52494;SDS011;38405;53.212;5.660;2023-03-14T11:59:15;7.82;;;1.65;;
52494;SDS011;38405;53.212;5.660;2023-03-14T12:01:54;5.00;;;1.58;;
52494;SDS011;38405;53.212;5.660;2023-03-14T12:04:23;11.07;;;2.42;;
52494;SDS011;38405;53.212;5.660;2023-03-14T12:07:18;11.30;;;1.80;;
52494;SDS011;38405;53.212;5.660;2023-03-14T12:09:59;10.00;;;1.60;;
52494;SDS011;38405;53.212;5.660;2023-03-14T12:12:25;7.60;;;1.65;;
52494;SDS011;38405;53.212;5.660;2023-03-14T12:15:01;5.18;;;1.35;;
52494;SDS011;38405;53.212;5.660;2023-03-14T12:17:35;5.18;;;1.20;;
52494;SDS011;38405;53.212;5.660;2023-03-14T12:22:55;5.88;;;1.25;;
52494;SDS011;38405;53.212;5.660;2023-03-14T12:25:30;7.13;;;1.65;;
52494;SDS011;38405;53.212;5.660;2023-03-14T12:28:14;13.07;;;1.60;;
52494;SDS011;38405;53.212;5.660;2023-03-14T12:30:55;5.07;;;1.52;;
52494;SDS011;38405;53.212;5.660;2023-03-14T12:33:26;7.55;;;1.52;;
52494;SDS011;38405;53.212;5.660;2023-03-14T12:35:59;6.82;;;1.75;;
52494;SDS011;38405;53.212;5.660;2023-03-14T12:41:03;7.55;;;1.73;;
52494;SDS011;38405;53.212;5.660;2023-03-14T12:43:53;9.82;;;1.65;;
52494;SDS011;38405;53.212;5.660;2023-03-14T12:46:23;12.77;;;2.25;;
52494;SDS011;38405;53.212;5.660;2023-03-14T12:56:51;7.20;;;1.83;;
52494;SDS011;38405;53.212;5.660;2023-03-14T13:04:37;16.10;;;2.97;;
52494;SDS011;38405;53.212;5.660;2023-03-14T13:12:37;7.63;;;1.90;;
52494;SDS011;38405;53.212;5.660;2023-03-14T13:15:15;8.65;;;2.05;;
52494;SDS011;38405;53.212;5.660;2023-03-14T13:17:47;8.32;;;1.45;;
52494;SDS011;38405;53.212;5.660;2023-03-14T13:20:26;10.23;;;1.55;;
52494;SDS011;38405;53.212;5.660;2023-03-14T13:22:58;6.40;;;1.58;;
52494;SDS011;38405;53.212;5.660;2023-03-14T13:25:24;9.90;;;1.38;;
52494;SDS011;38405;53.212;5.660;2023-03-14T13:27:55;9.60;;;1.48;;
52494;SDS011;38405;53.212;5.660;2023-03-14T13:30:43;9.20;;;1.55;;
52494;SDS011;38405;53.212;5.660;2023-03-14T13:33:15;13.35;;;1.73;;
52494;SDS011;38405;53.212;5.660;2023-03-14T13:35:47;9.05;;;1.90;;
52494;SDS011;38405;53.212;5.660;2023-03-14T13:38:20;5.22;;;1.40;;
52494;SDS011;38405;53.212;5.660;2023-03-14T13:40:50;8.07;;;1.48;;
52494;SDS011;38405;53.212;5.660;2023-03-14T13:43:38;5.53;;;1.42;;
52494;SDS011;38405;53.212;5.660;2023-03-14T13:46:07;4.90;;;1.38;;
52494;SDS011;38405;53.212;5.660;2023-03-14T13:48:41;8.30;;;1.40;;
52494;SDS011;38405;53.212;5.660;2023-03-14T13:51:13;6.15;;;1.60;;
52494;SDS011;38405;53.212;5.660;2023-03-14T13:56:16;10.05;;;1.48;;
52494;SDS011;38405;53.212;5.660;2023-03-14T13:58:44;6.55;;;1.17;;
52494;SDS011;38405;53.212;5.660;2023-03-14T14:01:18;8.52;;;1.20;;
52494;SDS011;38405;53.212;5.660;2023-03-14T14:03:47;9.32;;;1.75;;
52494;SDS011;38405;53.212;5.660;2023-03-14T14:06:31;4.72;;;1.33;;
52494;SDS011;38405;53.212;5.660;2023-03-14T14:09:03;7.97;;;1.70;;
52494;SDS011;38405;53.212;5.660;2023-03-14T14:11:59;7.55;;;1.55;;
52494;SDS011;38405;53.212;5.660;2023-03-14T14:16:58;8.65;;;1.88;;
52494;SDS011;38405;53.212;5.660;2023-03-14T14:19:27;13.52;;;2.13;;
52494;SDS011;38405;53.212;5.660;2023-03-14T14:21:55;11.63;;;2.08;;
52494;SDS011;38405;53.212;5.660;2023-03-14T14:24:22;13.43;;;2.28;;
52494;SDS011;38405;53.212;5.660;2023-03-14T14:26:53;11.38;;;3.88;;
52494;SDS011;38405;53.212;5.660;2023-03-14T14:29:28;10.63;;;1.95;;
52494;SDS011;38405;53.212;5.660;2023-03-14T14:31:59;7.95;;;2.08;;
52494;SDS011;38405;53.212;5.660;2023-03-14T14:34:44;9.13;;;2.00;;
52494;SDS011;38405;53.212;5.660;2023-03-14T14:39:45;7.85;;;2.00;;
52494;SDS011;38405;53.212;5.660;2023-03-14T14:42:18;9.00;;;1.73;;
52494;SDS011;38405;53.212;5.660;2023-03-14T14:44:47;10.55;;;1.42;;
52494;SDS011;38405;53.212;5.660;2023-03-14T14:47:16;13.23;;;2.28;;
52494;SDS011;38405;53.212;5.660;2023-03-14T14:49:49;10.93;;;1.80;;
52494;SDS011;38405;53.212;5.660;2023-03-14T14:52:17;9.10;;;1.60;;
52494;SDS011;38405;53.212;5.660;2023-03-14T14:54:51;9.90;;;1.67;;
52494;SDS011;38405;53.212;5.660;2023-03-14T14:57:23;12.45;;;1.50;;
52494;SDS011;38405;53.212;5.660;2023-03-14T14:59:50;9.25;;;2.10;;
52494;SDS011;38405;53.212;5.660;2023-03-14T15:02:35;10.65;;;2.90;;
52494;SDS011;38405;53.212;5.660;2023-03-14T15:05:15;12.63;;;1.60;;
52494;SDS011;38405;53.212;5.660;2023-03-14T15:07:44;12.95;;;2.22;;
52494;SDS011;38405;53.212;5.660;2023-03-14T15:10:15;12.68;;;1.88;;
52494;SDS011;38405;53.212;5.660;2023-03-14T15:12:42;10.65;;;1.85;;
52494;SDS011;38405;53.212;5.660;2023-03-14T15:15:08;9.43;;;1.92;;
52494;SDS011;38405;53.212;5.660;2023-03-14T15:17:35;9.60;;;2.00;;
52494;SDS011;38405;53.212;5.660;2023-03-14T15:20:02;9.07;;;1.90;;
52494;SDS011;38405;53.212;5.660;2023-03-14T15:22:29;13.98;;;2.50;;
52494;SDS011;38405;53.212;5.660;2023-03-14T15:24:55;14.20;;;1.95;;
52494;SDS011;38405;53.212;5.660;2023-03-14T15:27:21;8.00;;;1.67;;
52494;SDS011;38405;53.212;5.660;2023-03-14T15:29:47;7.18;;;1.52;;
52494;SDS011;38405;53.212;5.660;2023-03-14T15:32:14;9.95;;;1.90;;
52494;SDS011;38405;53.212;5.660;2023-03-14T15:34:41;10.55;;;2.47;;
52494;SDS011;38405;53.212;5.660;2023-03-14T15:37:14;12.57;;;1.92;;
52494;SDS011;38405;53.212;5.660;2023-03-14T15:39:44;10.93;;;1.92;;
52494;SDS011;38405;53.212;5.660;2023-03-14T15:42:10;8.88;;;1.70;;
52494;SDS011;38405;53.212;5.660;2023-03-14T15:44:36;8.73;;;1.50;;